Portada
METAR-TAF:

METAR-TAF

Aeroports :

Kuala Lumpur, Malàisia

latitud: 02-44N, longitud: 101-42E, altitud: 21 m

Observació

L'informe es va fer fa 24 minuts, a les 11:30 UTC
Vent 3 kt del Nord, variant entre Oest i Est/Nord-Est
Temperatura 28°C
Humitat 62%
Pressió 1009 hPa
Visibilitat 10 km o més
Escasses núvols a una alçada de 3000 ft

METAR: WMKK 191130Z 35003KT 280V060 9999 FEW030 28/20 Q1009 NOSIG

Hora: 19:54 (11:54 UTC)

Pronòstic

L'informe es va fer fa 54 minuts, a les 11:00 UTC
Pronòstic vàlid del 19 a les 12 UTC al 20 a les 18 UTC
Vent 6 kt del Nord-Est
Visibilitat 10 km o més
Escasses núvols a una alçada de 3000 ft
Probabilitat 30%
l' 20 a les 04 UTC al 20 a les 08 UTC
Visibilitat: 5000 m
Escasses núvols a una alçada de 1700 ft, Cumulonimbus.
Núvols disperses a una alçada de 1800 ft
xàfecs de pluja

TAF: WMKK 191100Z 1912/2018 05006KT 9999 FEW030 PROB30 2004/2008 5000 SHRA FEW017CB SCT018

Observacions i pronòstics meteorològics de més de 4000 aeroports (METAR i TAF).

Les estacions disponibles són els punts grocs i vermells al mapa.

Posi el ratolí al punt desitjat per veure el nom de l'estació.

Feu clic per veure les observacions i els pronòstics meteorològics.

Per canviar el mapa: feu clic els botons verds amb una creu de color negre per apropar; al botó verd amb un guió per allunyar la imatge; o en les fletxes verdes per a mapes adjacents.


METAR-TAF: